sensor_id;sensor_type;location;lat;lon;timestamp;pressure;altitude;pressure_sealevel;temperature;humidity
71907;BME280;59781;52.090;5.030;2023-04-21T00:01:00;101573.78;;;8.44;100.00
71907;BME280;59781;52.090;5.030;2023-04-21T00:03:26;101581.50;;;8.27;100.00
71907;BME280;59781;52.090;5.030;2023-04-21T00:05:57;101584.56;;;8.13;100.00
71907;BME280;59781;52.090;5.030;2023-04-21T00:08:24;101582.00;;;8.61;100.00
71907;BME280;59781;52.090;5.030;2023-04-21T00:10:52;101583.91;;;8.30;100.00
71907;BME280;59781;52.090;5.030;2023-04-21T00:13:18;101585.34;;;8.44;100.00
71907;BME280;59781;52.090;5.030;2023-04-21T00:15:44;101579.47;;;8.10;100.00
71907;BME280;59781;52.090;5.030;2023-04-21T00:18:10;101572.44;;;8.19;100.00
71907;BME280;59781;52.090;5.030;2023-04-21T00:20:37;101557.75;;;8.32;100.00
71907;BME280;59781;52.090;5.030;2023-04-21T00:23:03;101542.94;;;8.28;100.00
71907;BME280;59781;52.090;5.030;2023-04-21T00:25:29;101550.81;;;8.20;100.00
71907;BME280;59781;52.090;5.030;2023-04-21T00:27:55;101551.13;;;8.17;100.00
71907;BME280;59781;52.090;5.030;2023-04-21T00:30:21;101551.75;;;8.40;100.00
71907;BME280;59781;52.090;5.030;2023-04-21T00:32:47;101549.13;;;8.19;100.00
71907;BME280;59781;52.090;5.030;2023-04-21T00:35:12;101544.06;;;8.16;100.00
71907;BME280;59781;52.090;5.030;2023-04-21T00:37:38;101535.56;;;8.11;100.00
71907;BME280;59781;52.090;5.030;2023-04-21T00:40:06;101533.88;;;8.20;100.00
71907;BME280;59781;52.090;5.030;2023-04-21T00:42:32;101534.22;;;8.36;100.00
71907;BME280;59781;52.090;5.030;2023-04-21T00:44:59;101532.19;;;8.19;100.00
71907;BME280;59781;52.090;5.030;2023-04-21T00:47:25;101521.78;;;8.54;100.00
71907;BME280;59781;52.090;5.030;2023-04-21T00:49:52;101509.03;;;8.27;100.00
71907;BME280;59781;52.090;5.030;2023-04-21T00:52:18;101516.00;;;8.40;100.00
71907;BME280;59781;52.090;5.030;2023-04-21T00:54:43;101526.13;;;8.26;100.00
71907;BME280;59781;52.090;5.030;2023-04-21T00:57:10;101533.72;;;8.12;100.00
71907;BME280;59781;52.090;5.030;2023-04-21T00:59:36;101523.56;;;8.15;100.00
71907;BME280;59781;52.090;5.030;2023-04-21T01:02:03;101513.66;;;8.06;100.00
71907;BME280;59781;52.090;5.030;2023-04-21T01:04:28;101518.00;;;8.47;100.00
71907;BME280;59781;52.090;5.030;2023-04-21T01:07:00;101512.97;;;8.33;100.00
71907;BME280;59781;52.090;5.030;2023-04-21T01:09:26;101513.53;;;8.08;100.00
71907;BME280;59781;52.090;5.030;2023-04-21T01:14:34;101512.66;;;7.97;100.00
71907;BME280;59781;52.090;5.030;2023-04-21T01:17:01;101516.31;;;8.06;100.00
71907;BME280;59781;52.090;5.030;2023-04-21T01:19:37;101516.19;;;7.98;100.00
71907;BME280;59781;52.090;5.030;2023-04-21T01:22:07;101517.88;;;7.99;100.00
71907;BME280;59781;52.090;5.030;2023-04-21T01:24:42;101520.81;;;7.86;100.00
71907;BME280;59781;52.090;5.030;2023-04-21T01:27:13;101516.41;;;7.75;100.00
71907;BME280;59781;52.090;5.030;2023-04-21T01:29:46;101507.81;;;7.82;100.00
71907;BME280;59781;52.090;5.030;2023-04-21T01:32:26;101504.19;;;8.02;100.00
71907;BME280;59781;52.090;5.030;2023-04-21T01:34:56;101506.59;;;7.55;100.00
71907;BME280;59781;52.090;5.030;2023-04-21T01:37:26;101506.53;;;7.86;100.00
71907;BME280;59781;52.090;5.030;2023-04-21T01:39:56;101496.38;;;7.80;100.00
71907;BME280;59781;52.090;5.030;2023-04-21T01:42:25;101505.84;;;7.84;100.00
71907;BME280;59781;52.090;5.030;2023-04-21T01:44:54;101495.31;;;8.01;100.00
71907;BME280;59781;52.090;5.030;2023-04-21T01:47:22;101503.97;;;7.74;100.00
71907;BME280;59781;52.090;5.030;2023-04-21T01:49:49;101487.38;;;7.90;100.00
71907;BME280;59781;52.090;5.030;2023-04-21T01:52:14;101482.47;;;8.15;100.00
71907;BME280;59781;52.090;5.030;2023-04-21T01:54:40;101472.41;;;7.88;100.00
71907;BME280;59781;52.090;5.030;2023-04-21T01:57:06;101481.25;;;7.69;100.00
71907;BME280;59781;52.090;5.030;2023-04-21T01:59:32;101472.41;;;7.88;100.00
71907;BME280;59781;52.090;5.030;2023-04-21T02:01:58;101475.94;;;7.79;100.00
71907;BME280;59781;52.090;5.030;2023-04-21T02:04:24;101467.47;;;7.93;100.00
71907;BME280;59781;52.090;5.030;2023-04-21T02:06:49;101466.22;;;7.87;100.00
71907;BME280;59781;52.090;5.030;2023-04-21T02:09:15;101476.09;;;8.06;100.00
71907;BME280;59781;52.090;5.030;2023-04-21T02:11:41;101469.31;;;8.02;100.00
71907;BME280;59781;52.090;5.030;2023-04-21T02:14:07;101473.00;;;8.01;100.00
71907;BME280;59781;52.090;5.030;2023-04-21T02:16:32;101472.84;;;8.02;100.00
71907;BME280;59781;52.090;5.030;2023-04-21T02:18:59;101476.81;;;8.08;100.00
71907;BME280;59781;52.090;5.030;2023-04-21T02:21:26;101473.28;;;8.08;100.00
71907;BME280;59781;52.090;5.030;2023-04-21T02:23:53;101461.84;;;8.25;100.00
71907;BME280;59781;52.090;5.030;2023-04-21T02:26:19;101469.44;;;7.91;100.00
71907;BME280;59781;52.090;5.030;2023-04-21T02:28:45;101467.31;;;7.94;100.00
71907;BME280;59781;52.090;5.030;2023-04-21T02:31:14;101470.31;;;8.01;100.00
71907;BME280;59781;52.090;5.030;2023-04-21T02:33:40;101458.19;;;7.97;100.00
71907;BME280;59781;52.090;5.030;2023-04-21T02:36:06;101465.66;;;8.03;100.00
71907;BME280;59781;52.090;5.030;2023-04-21T02:38:32;101458.31;;;8.24;100.00
71907;BME280;59781;52.090;5.030;2023-04-21T02:40:58;101454.91;;;8.03;100.00
71907;BME280;59781;52.090;5.030;2023-04-21T02:43:24;101458.31;;;8.15;100.00
71907;BME280;59781;52.090;5.030;2023-04-21T02:45:50;101445.63;;;8.17;100.00
71907;BME280;59781;52.090;5.030;2023-04-21T02:48:17;101445.19;;;8.12;100.00
71907;BME280;59781;52.090;5.030;2023-04-21T02:50:51;101455.91;;;8.12;100.00
71907;BME280;59781;52.090;5.030;2023-04-21T02:53:19;101443.34;;;8.22;100.00
71907;BME280;59781;52.090;5.030;2023-04-21T02:55:45;101449.41;;;8.33;100.00
71907;BME280;59781;52.090;5.030;2023-04-21T02:58:10;101443.50;;;8.30;100.00
71907;BME280;59781;52.090;5.030;2023-04-21T03:00:36;101438.13;;;8.20;100.00
71907;BME280;59781;52.090;5.030;2023-04-21T03:03:02;101437.16;;;8.21;100.00
71907;BME280;59781;52.090;5.030;2023-04-21T03:05:28;101445.75;;;8.15;100.00
71907;BME280;59781;52.090;5.030;2023-04-21T03:07:54;101438.53;;;8.16;100.00
71907;BME280;59781;52.090;5.030;2023-04-21T03:10:19;101433.88;;;7.89;100.00
71907;BME280;59781;52.090;5.030;2023-04-21T03:12:45;101442.78;;;8.09;100.00
71907;BME280;59781;52.090;5.030;2023-04-21T03:15:11;101444.50;;;8.29;100.00
71907;BME280;59781;52.090;5.030;2023-04-21T03:17:39;101446.19;;;8.20;100.00
71907;BME280;59781;52.090;5.030;2023-04-21T03:20:07;101451.94;;;7.77;100.00
71907;BME280;59781;52.090;5.030;2023-04-21T03:22:34;101445.31;;;7.91;100.00
71907;BME280;59781;52.090;5.030;2023-04-21T03:25:00;101455.72;;;7.74;100.00
71907;BME280;59781;52.090;5.030;2023-04-21T03:27:26;101446.88;;;8.03;100.00
71907;BME280;59781;52.090;5.030;2023-04-21T03:29:52;101447.13;;;7.81;100.00
71907;BME280;59781;52.090;5.030;2023-04-21T03:32:17;101435.72;;;7.98;100.00
71907;BME280;59781;52.090;5.030;2023-04-21T03:34:43;101443.50;;;8.20;100.00
71907;BME280;59781;52.090;5.030;2023-04-21T03:37:09;101427.69;;;7.98;100.00
71907;BME280;59781;52.090;5.030;2023-04-21T03:39:35;101426.41;;;7.92;100.00
71907;BME280;59781;52.090;5.030;2023-04-21T03:42:03;101419.34;;;7.91;100.00
71907;BME280;59781;52.090;5.030;2023-04-21T03:44:29;101423.31;;;7.97;100.00
71907;BME280;59781;52.090;5.030;2023-04-21T03:46:55;101410.59;;;7.80;100.00
71907;BME280;59781;52.090;5.030;2023-04-21T03:49:22;101406.38;;;7.87;100.00
71907;BME280;59781;52.090;5.030;2023-04-21T03:51:48;101397.19;;;7.99;100.00
71907;BME280;59781;52.090;5.030;2023-04-21T03:54:14;101398.88;;;7.81;100.00
71907;BME280;59781;52.090;5.030;2023-04-21T03:56:39;101402.25;;;8.02;100.00
71907;BME280;59781;52.090;5.030;2023-04-21T03:59:05;101408.75;;;7.90;100.00
71907;BME280;59781;52.090;5.030;2023-04-21T04:01:32;101394.50;;;7.80;100.00
71907;BME280;59781;52.090;5.030;2023-04-21T04:03:59;101405.09;;;7.91;100.00
71907;BME280;59781;52.090;5.030;2023-04-21T04:06:24;101397.19;;;7.89;100.00
71907;BME280;59781;52.090;5.030;2023-04-21T04:08:50;101396.59;;;8.24;100.00
71907;BME280;59781;52.090;5.030;2023-04-21T04:11:16;101398.44;;;8.14;100.00
71907;BME280;59781;52.090;5.030;2023-04-21T04:13:42;101407.47;;;8.13;100.00
71907;BME280;59781;52.090;5.030;2023-04-21T04:16:07;101390.41;;;8.14;100.00
71907;BME280;59781;52.090;5.030;2023-04-21T04:18:33;101395.75;;;8.14;100.00
71907;BME280;59781;52.090;5.030;2023-04-21T04:21:07;101380.81;;;8.02;100.00
71907;BME280;59781;52.090;5.030;2023-04-21T04:23:33;101377.84;;;8.05;100.00
71907;BME280;59781;52.090;5.030;2023-04-21T04:25:59;101371.34;;;8.27;100.00
71907;BME280;59781;52.090;5.030;2023-04-21T04:28:26;101381.78;;;8.20;100.00
71907;BME280;59781;52.090;5.030;2023-04-21T04:30:52;101383.78;;;7.99;100.00
71907;BME280;59781;52.090;5.030;2023-04-21T04:33:18;101381.34;;;7.76;100.00
71907;BME280;59781;52.090;5.030;2023-04-21T04:35:43;101377.13;;;7.84;100.00
71907;BME280;59781;52.090;5.030;2023-04-21T04:38:09;101383.94;;;7.97;100.00
71907;BME280;59781;52.090;5.030;2023-04-21T04:40:35;101375.44;;;8.12;100.00
71907;BME280;59781;52.090;5.030;2023-04-21T04:43:01;101387.84;;;8.13;100.00
71907;BME280;59781;52.090;5.030;2023-04-21T04:45:27;101388.16;;;7.90;100.00
71907;BME280;59781;52.090;5.030;2023-04-21T04:47:56;101402.69;;;8.17;100.00
71907;BME280;59781;52.090;5.030;2023-04-21T04:50:22;101402.41;;;8.10;100.00
71907;BME280;59781;52.090;5.030;2023-04-21T04:52:48;101408.63;;;8.11;100.00
71907;BME280;59781;52.090;5.030;2023-04-21T04:55:15;101406.63;;;8.03;100.00
71907;BME280;59781;52.090;5.030;2023-04-21T04:57:41;101398.44;;;8.04;100.00
71907;BME280;59781;52.090;5.030;2023-04-21T05:00:07;101401.97;;;7.95;100.00
71907;BME280;59781;52.090;5.030;2023-04-21T05:02:37;101408.47;;;8.12;100.00
71907;BME280;59781;52.090;5.030;2023-04-21T05:05:04;101407.63;;;8.12;100.00
71907;BME280;59781;52.090;5.030;2023-04-21T05:07:31;101395.66;;;7.96;100.00
71907;BME280;59781;52.090;5.030;2023-04-21T05:09:57;101397.72;;;7.83;100.00
71907;BME280;59781;52.090;5.030;2023-04-21T05:12:23;101392.81;;;8.17;100.00
71907;BME280;59781;52.090;5.030;2023-04-21T05:14:48;101390.13;;;8.27;100.00
71907;BME280;59781;52.090;5.030;2023-04-21T05:17:14;101389.53;;;8.23;100.00
71907;BME280;59781;52.090;5.030;2023-04-21T05:19:40;101403.81;;;8.14;100.00
71907;BME280;59781;52.090;5.030;2023-04-21T05:22:06;101408.91;;;8.17;100.00
71907;BME280;59781;52.090;5.030;2023-04-21T05:24:32;101403.41;;;7.99;100.00
71907;BME280;59781;52.090;5.030;2023-04-21T05:26:58;101405.94;;;8.11;100.00
71907;BME280;59781;52.090;5.030;2023-04-21T05:29:25;101400.88;;;8.17;100.00
71907;BME280;59781;52.090;5.030;2023-04-21T05:31:51;101405.78;;;8.31;100.00
71907;BME280;59781;52.090;5.030;2023-04-21T05:34:16;101415.38;;;8.24;100.00
71907;BME280;59781;52.090;5.030;2023-04-21T05:36:43;101415.38;;;8.24;100.00
71907;BME280;59781;52.090;5.030;2023-04-21T05:39:09;101409.63;;;8.48;100.00
71907;BME280;59781;52.090;5.030;2023-04-21T05:41:35;101421.75;;;8.33;100.00
71907;BME280;59781;52.090;5.030;2023-04-21T05:44:00;101426.41;;;8.31;100.00
71907;BME280;59781;52.090;5.030;2023-04-21T05:46:26;101418.50;;;8.29;100.00
71907;BME280;59781;52.090;5.030;2023-04-21T05:48:52;101412.84;;;8.61;100.00
71907;BME280;59781;52.090;5.030;2023-04-21T05:51:17;101410.44;;;8.58;100.00
71907;BME280;59781;52.090;5.030;2023-04-21T05:53:44;101416.50;;;8.70;100.00
71907;BME280;59781;52.090;5.030;2023-04-21T05:56:11;101409.16;;;8.33;100.00
71907;BME280;59781;52.090;5.030;2023-04-21T05:58:38;101424.88;;;8.48;100.00
71907;BME280;59781;52.090;5.030;2023-04-21T06:01:04;101425.44;;;8.42;100.00
71907;BME280;59781;52.090;5.030;2023-04-21T06:03:31;101439.00;;;8.50;100.00
71907;BME280;59781;52.090;5.030;2023-04-21T06:06:02;101432.34;;;8.54;100.00
71907;BME280;59781;52.090;5.030;2023-04-21T06:08:30;101425.41;;;8.32;100.00
71907;BME280;59781;52.090;5.030;2023-04-21T06:10:56;101427.56;;;8.38;100.00
71907;BME280;59781;52.090;5.030;2023-04-21T06:13:22;101433.94;;;8.47;100.00
71907;BME280;59781;52.090;5.030;2023-04-21T06:15:47;101422.75;;;8.42;100.00
71907;BME280;59781;52.090;5.030;2023-04-21T06:18:13;101419.75;;;8.54;100.00
71907;BME280;59781;52.090;5.030;2023-04-21T06:20:39;101429.25;;;8.58;100.00
71907;BME280;59781;52.090;5.030;2023-04-21T06:23:05;101422.44;;;8.54;100.00
71907;BME280;59781;52.090;5.030;2023-04-21T06:25:31;101422.91;;;8.40;100.00
71907;BME280;59781;52.090;5.030;2023-04-21T06:27:57;101415.25;;;8.45;100.00
71907;BME280;59781;52.090;5.030;2023-04-21T06:30:22;101421.88;;;8.60;100.00
71907;BME280;59781;52.090;5.030;2023-04-21T06:32:49;101417.88;;;8.74;100.00
71907;BME280;59781;52.090;5.030;2023-04-21T06:35:15;101414.22;;;8.85;100.00
71907;BME280;59781;52.090;5.030;2023-04-21T06:37:41;101413.00;;;9.07;100.00
71907;BME280;59781;52.090;5.030;2023-04-21T06:40:07;101412.63;;;8.92;100.00
71907;BME280;59781;52.090;5.030;2023-04-21T06:42:33;101415.13;;;9.03;100.00
71907;BME280;59781;52.090;5.030;2023-04-21T06:44:59;101411.41;;;9.14;100.00
71907;BME280;59781;52.090;5.030;2023-04-21T06:47:25;101410.50;;;9.23;100.00
71907;BME280;59781;52.090;5.030;2023-04-21T06:49:50;101419.03;;;9.18;100.00
71907;BME280;59781;52.090;5.030;2023-04-21T06:52:16;101412.34;;;9.50;100.00
71907;BME280;59781;52.090;5.030;2023-04-21T06:54:42;101401.97;;;10.00;100.00
71907;BME280;59781;52.090;5.030;2023-04-21T06:57:07;101406.78;;;10.24;100.00
71907;BME280;59781;52.090;5.030;2023-04-21T06:59:33;101405.78;;;10.51;100.00
71907;BME280;59781;52.090;5.030;2023-04-21T07:01:59;101406.97;;;10.13;100.00
71907;BME280;59781;52.090;5.030;2023-04-21T07:04:25;101400.91;;;9.93;100.00
71907;BME280;59781;52.090;5.030;2023-04-21T07:06:56;101400.66;;;9.87;100.00
71907;BME280;59781;52.090;5.030;2023-04-21T07:09:22;101397.06;;;9.96;100.00
71907;BME280;59781;52.090;5.030;2023-04-21T07:11:48;101401.59;;;10.13;100.00
71907;BME280;59781;52.090;5.030;2023-04-21T07:14:14;101403.28;;;10.14;100.00
71907;BME280;59781;52.090;5.030;2023-04-21T07:16:40;101399.03;;;10.12;100.00
71907;BME280;59781;52.090;5.030;2023-04-21T07:19:06;101389.28;;;9.75;100.00
71907;BME280;59781;52.090;5.030;2023-04-21T07:21:31;101388.03;;;10.41;100.00
71907;BME280;59781;52.090;5.030;2023-04-21T07:24:01;101392.31;;;10.25;100.00
71907;BME280;59781;52.090;5.030;2023-04-21T07:26:27;101392.63;;;10.66;100.00
71907;BME280;59781;52.090;5.030;2023-04-21T07:28:53;101390.72;;;11.18;100.00
71907;BME280;59781;52.090;5.030;2023-04-21T07:31:23;101386.78;;;10.79;100.00
71907;BME280;59781;52.090;5.030;2023-04-21T07:33:49;101384.00;;;10.88;100.00
71907;BME280;59781;52.090;5.030;2023-04-21T07:36:15;101393.72;;;10.20;100.00
71907;BME280;59781;52.090;5.030;2023-04-21T07:38:42;101403.66;;;10.19;100.00
71907;BME280;59781;52.090;5.030;2023-04-21T07:41:09;101403.44;;;10.30;100.00
71907;BME280;59781;52.090;5.030;2023-04-21T07:43:39;101406.06;;;10.22;100.00
71907;BME280;59781;52.090;5.030;2023-04-21T07:46:05;101398.69;;;10.42;100.00
71907;BME280;59781;52.090;5.030;2023-04-21T07:48:31;101404.09;;;10.50;100.00
71907;BME280;59781;52.090;5.030;2023-04-21T07:50:57;101404.34;;;10.39;100.00
71907;BME280;59781;52.090;5.030;2023-04-21T07:53:25;101410.44;;;10.41;100.00
71907;BME280;59781;52.090;5.030;2023-04-21T07:55:52;101399.00;;;11.25;100.00
71907;BME280;59781;52.090;5.030;2023-04-21T07:58:18;101408.44;;;11.29;100.00
71907;BME280;59781;52.090;5.030;2023-04-21T08:00:44;101398.25;;;12.24;100.00
71907;BME280;59781;52.090;5.030;2023-04-21T08:03:10;101400.97;;;11.57;100.00
71907;BME280;59781;52.090;5.030;2023-04-21T08:05:36;101400.22;;;11.89;100.00
71907;BME280;59781;52.090;5.030;2023-04-21T08:08:01;101386.41;;;12.09;100.00
71907;BME280;59781;52.090;5.030;2023-04-21T08:10:27;101390.13;;;11.83;100.00
71907;BME280;59781;52.090;5.030;2023-04-21T08:12:53;101382.78;;;13.45;100.00
71907;BME280;59781;52.090;5.030;2023-04-21T08:15:19;101389.13;;;12.17;100.00
71907;BME280;59781;52.090;5.030;2023-04-21T08:17:45;101392.09;;;11.73;100.00
71907;BME280;59781;52.090;5.030;2023-04-21T08:20:11;101382.47;;;11.70;100.00
71907;BME280;59781;52.090;5.030;2023-04-21T08:22:37;101380.69;;;11.37;100.00
71907;BME280;59781;52.090;5.030;2023-04-21T08:25:03;101381.19;;;11.91;100.00
71907;BME280;59781;52.090;5.030;2023-04-21T08:27:30;101376.19;;;11.54;100.00
71907;BME280;59781;52.090;5.030;2023-04-21T08:29:56;101373.94;;;11.83;100.00
71907;BME280;59781;52.090;5.030;2023-04-21T08:32:22;101376.22;;;11.62;100.00
71907;BME280;59781;52.090;5.030;2023-04-21T08:34:50;101370.75;;;12.04;100.00
71907;BME280;59781;52.090;5.030;2023-04-21T08:37:17;101371.94;;;12.01;100.00
71907;BME280;59781;52.090;5.030;2023-04-21T08:39:44;101378.81;;;11.96;100.00
71907;BME280;59781;52.090;5.030;2023-04-21T08:42:18;101367.94;;;13.72;100.00
71907;BME280;59781;52.090;5.030;2023-04-21T08:44:45;101370.03;;;13.85;100.00
71907;BME280;59781;52.090;5.030;2023-04-21T08:47:12;101373.97;;;13.12;100.00
71907;BME280;59781;52.090;5.030;2023-04-21T08:49:40;101372.56;;;12.69;100.00
71907;BME280;59781;52.090;5.030;2023-04-21T08:52:11;101377.50;;;12.16;100.00
71907;BME280;59781;52.090;5.030;2023-04-21T08:54:40;101373.22;;;12.79;100.00
71907;BME280;59781;52.090;5.030;2023-04-21T08:57:06;101365.31;;;13.87;100.00
71907;BME280;59781;52.090;5.030;2023-04-21T08:59:32;101358.63;;;14.20;100.00
71907;BME280;59781;52.090;5.030;2023-04-21T09:04:46;101358.97;;;13.71;100.00
71907;BME280;59781;52.090;5.030;2023-04-21T09:09:56;101352.41;;;14.12;100.00
71907;BME280;59781;52.090;5.030;2023-04-21T09:12:23;101347.66;;;13.37;100.00
71907;BME280;59781;52.090;5.030;2023-04-21T09:14:48;101346.44;;;14.39;100.00
71907;BME280;59781;52.090;5.030;2023-04-21T09:17:16;101350.31;;;14.22;100.00
71907;BME280;59781;52.090;5.030;2023-04-21T09:19:43;101355.31;;;14.10;100.00
71907;BME280;59781;52.090;5.030;2023-04-21T09:22:14;101354.81;;;15.11;100.00
71907;BME280;59781;52.090;5.030;2023-04-21T09:24:48;101351.66;;;14.78;100.00
71907;BME280;59781;52.090;5.030;2023-04-21T09:27:21;101362.88;;;12.90;100.00
71907;BME280;59781;52.090;5.030;2023-04-21T09:29:47;101352.09;;;13.61;100.00
71907;BME280;59781;52.090;5.030;2023-04-21T09:32:17;101355.06;;;12.96;100.00
71907;BME280;59781;52.090;5.030;2023-04-21T09:34:46;101348.56;;;12.74;100.00
71907;BME280;59781;52.090;5.030;2023-04-21T09:37:13;101357.66;;;12.89;100.00
71907;BME280;59781;52.090;5.030;2023-04-21T09:39:44;101349.13;;;13.08;100.00
71907;BME280;59781;52.090;5.030;2023-04-21T09:42:11;101348.94;;;13.80;100.00
71907;BME280;59781;52.090;5.030;2023-04-21T09:44:36;101336.72;;;13.61;100.00
71907;BME280;59781;52.090;5.030;2023-04-21T09:47:09;101342.81;;;13.55;100.00
71907;BME280;59781;52.090;5.030;2023-04-21T09:49:38;101347.56;;;13.14;100.00
71907;BME280;59781;52.090;5.030;2023-04-21T09:52:09;101348.00;;;13.42;100.00
71907;BME280;59781;52.090;5.030;2023-04-21T09:54:45;101336.88;;;14.05;100.00
71907;BME280;59781;52.090;5.030;2023-04-21T09:57:20;101336.19;;;13.35;100.00
71907;BME280;59781;52.090;5.030;2023-04-21T09:59:59;101340.00;;;13.09;100.00
71907;BME280;59781;52.090;5.030;2023-04-21T10:02:35;101338.44;;;12.68;100.00
71907;BME280;59781;52.090;5.030;2023-04-21T10:05:06;101337.38;;;12.77;100.00
71907;BME280;59781;52.090;5.030;2023-04-21T10:07:34;101324.88;;;13.31;100.00
71907;BME280;59781;52.090;5.030;2023-04-21T10:10:01;101326.66;;;13.47;100.00
71907;BME280;59781;52.090;5.030;2023-04-21T10:12:28;101330.53;;;13.44;100.00
71907;BME280;59781;52.090;5.030;2023-04-21T10:14:55;101326.66;;;13.93;100.00
71907;BME280;59781;52.090;5.030;2023-04-21T10:17:23;101334.56;;;13.80;100.00
71907;BME280;59781;52.090;5.030;2023-04-21T10:19:54;101334.03;;;14.45;100.00
71907;BME280;59781;52.090;5.030;2023-04-21T10:22:32;101327.16;;;14.57;100.00
71907;BME280;59781;52.090;5.030;2023-04-21T10:25:00;101333.59;;;15.00;100.00
71907;BME280;59781;52.090;5.030;2023-04-21T10:27:39;101328.06;;;13.89;100.00
71907;BME280;59781;52.090;5.030;2023-04-21T10:30:22;101320.06;;;13.72;100.00
71907;BME280;59781;52.090;5.030;2023-04-21T10:33:03;101318.84;;;13.52;100.00
71907;BME280;59781;52.090;5.030;2023-04-21T10:35:58;101317.66;;;14.38;100.00
71907;BME280;59781;52.090;5.030;2023-04-21T10:38:39;101324.31;;;14.13;100.00
71907;BME280;59781;52.090;5.030;2023-04-21T10:41:26;101321.06;;;14.17;100.00
71907;BME280;59781;52.090;5.030;2023-04-21T10:43:57;101310.47;;;14.07;100.00
71907;BME280;59781;52.090;5.030;2023-04-21T10:46:39;101307.97;;;13.83;100.00
71907;BME280;59781;52.090;5.030;2023-04-21T10:49:26;101307.00;;;13.99;100.00
71907;BME280;59781;52.090;5.030;2023-04-21T10:54:42;101301.94;;;13.96;100.00
71907;BME280;59781;52.090;5.030;2023-04-21T10:57:31;101295.25;;;13.84;100.00
71907;BME280;59781;52.090;5.030;2023-04-21T10:59:59;101294.09;;;15.27;100.00
71907;BME280;59781;52.090;5.030;2023-04-21T11:02:26;101288.63;;;15.06;100.00
71907;BME280;59781;52.090;5.030;2023-04-21T11:04:53;101296.56;;;14.11;100.00
71907;BME280;59781;52.090;5.030;2023-04-21T11:07:20;101280.63;;;13.93;100.00
71907;BME280;59781;52.090;5.030;2023-04-21T11:09:58;101284.19;;;13.93;100.00
71907;BME280;59781;52.090;5.030;2023-04-21T11:12:28;101281.16;;;14.11;100.00
71907;BME280;59781;52.090;5.030;2023-04-21T11:14:55;101279.78;;;14.30;100.00
71907;BME280;59781;52.090;5.030;2023-04-21T11:17:22;101266.59;;;14.12;100.00
71907;BME280;59781;52.090;5.030;2023-04-21T11:19:53;101271.66;;;13.77;100.00
71907;BME280;59781;52.090;5.030;2023-04-21T11:22:22;101270.91;;;14.21;100.00
71907;BME280;59781;52.090;5.030;2023-04-21T11:24:52;101265.03;;;14.18;100.00
71907;BME280;59781;52.090;5.030;2023-04-21T11:27:20;101258.16;;;13.69;100.00
71907;BME280;59781;52.090;5.030;2023-04-21T11:29:50;101262.91;;;14.05;100.00
71907;BME280;59781;52.090;5.030;2023-04-21T11:32:17;101251.06;;;14.58;100.00
71907;BME280;59781;52.090;5.030;2023-04-21T11:34:43;101247.03;;;14.69;100.00
71907;BME280;59781;52.090;5.030;2023-04-21T11:37:24;101246.91;;;14.33;100.00
71907;BME280;59781;52.090;5.030;2023-04-21T11:39:58;101247.88;;;14.70;100.00
71907;BME280;59781;52.090;5.030;2023-04-21T11:42:25;101236.66;;;14.58;100.00
71907;BME280;59781;52.090;5.030;2023-04-21T11:44:54;101234.31;;;14.55;100.00
71907;BME280;59781;52.090;5.030;2023-04-21T11:47:27;101237.56;;;14.80;100.00
71907;BME280;59781;52.090;5.030;2023-04-21T11:49:58;101229.38;;;16.16;100.00
71907;BME280;59781;52.090;5.030;2023-04-21T11:52:27;101232.28;;;16.49;100.00
71907;BME280;59781;52.090;5.030;2023-04-21T11:55:00;101232.06;;;15.45;100.00
71907;BME280;59781;52.090;5.030;2023-04-21T11:57:30;101230.72;;;14.84;100.00
71907;BME280;59781;52.090;5.030;2023-04-21T11:59:59;101226.19;;;14.70;100.00
71907;BME280;59781;52.090;5.030;2023-04-21T12:02:31;101213.16;;;16.01;100.00
71907;BME280;59781;52.090;5.030;2023-04-21T12:07:34;101216.59;;;16.51;100.00
71907;BME280;59781;52.090;5.030;2023-04-21T12:10:08;101199.47;;;16.99;100.00
71907;BME280;59781;52.090;5.030;2023-04-21T12:12:37;101212.81;;;15.83;100.00
71907;BME280;59781;52.090;5.030;2023-04-21T12:15:07;101206.00;;;15.94;100.00
71907;BME280;59781;52.090;5.030;2023-04-21T12:17:38;101197.97;;;16.89;100.00
71907;BME280;59781;52.090;5.030;2023-04-21T12:20:12;101196.72;;;17.73;100.00
71907;BME280;59781;52.090;5.030;2023-04-21T12:22:40;101192.47;;;17.57;100.00
71907;BME280;59781;52.090;5.030;2023-04-21T12:25:06;101195.31;;;17.09;100.00
71907;BME280;59781;52.090;5.030;2023-04-21T12:27:33;101194.56;;;16.33;100.00
71907;BME280;59781;52.090;5.030;2023-04-21T12:29:59;101191.75;;;16.20;100.00
71907;BME280;59781;52.090;5.030;2023-04-21T12:32:25;101186.63;;;17.67;100.00
71907;BME280;59781;52.090;5.030;2023-04-21T12:34:51;101178.59;;;16.58;100.00
71907;BME280;59781;52.090;5.030;2023-04-21T12:37:17;101173.75;;;16.95;100.00
71907;BME280;59781;52.090;5.030;2023-04-21T12:39:43;101176.63;;;16.11;100.00
71907;BME280;59781;52.090;5.030;2023-04-21T12:42:09;101183.63;;;15.92;100.00
71907;BME280;59781;52.090;5.030;2023-04-21T12:44:35;101167.53;;;16.25;100.00
71907;BME280;59781;52.090;5.030;2023-04-21T12:47:02;101169.91;;;16.41;100.00
71907;BME280;59781;52.090;5.030;2023-04-21T12:49:28;101166.94;;;17.52;100.00
71907;BME280;59781;52.090;5.030;2023-04-21T12:51:54;101157.91;;;17.97;100.00
71907;BME280;59781;52.090;5.030;2023-04-21T12:54:20;101160.81;;;18.22;96.34
71907;BME280;59781;52.090;5.030;2023-04-21T12:56:46;101161.03;;;17.22;100.00
71907;BME280;59781;52.090;5.030;2023-04-21T12:59:11;101160.81;;;16.14;100.00
71907;BME280;59781;52.090;5.030;2023-04-21T13:01:40;101155.59;;;17.22;100.00